Panna Maria, Texas
Current Conditions -  °F | °C
As of 7:55 AM on Thursday 30 Oct 2014 (Local Time) from KPEZ Reporting Station
Haze Haze  
Wind Chill: 65°   Ceiling: 1100
Heat Index: 65°   Visibility: 4mi
Dew Point: 63°   Wind: 0mph
Humidity: 94%   Direction: NA
Pressure: 30.12"   Gusts: NA
Location:  28.96°N, 97.9°W
Report Text: KPEZ 301255Z AUTO 00000KT 4SM BR OVC011 18/17 A3012 RMK AO2 T01810171
Loading
Personal Weather Stations






























Interactive Weather Map
Tropical Storm Tracking
New forecast layout! Learn more

10-Day Weather Forecast

Advertisements
Track Severe Weather on mobile